Time;durP1;ratioP1;P1;durP2;ratioP2;P2;SDS_P1;SDS_P2;PMS_P1;PMS_P2;Temp;Humidity;BMP_temperature;BMP_pressure;BME280_temperature;BME280_humidity;BME280_pressure;Samples;Min_cycle;Max_cycle;Signal;HPM_P1;HPM_P2
2021/12/02 00:02:21;;;;;;;7.32;1.90;;;6.10;88.40;;;;;;5044712;28;20116;-85
2021/12/02 00:04:47;;;;;;;11.40;1.92;;;6.00;88.40;;;;;;5041082;28;20032;-85
2021/12/02 00:07:13;;;;;;;9.32;2.10;;;6.00;88.60;;;;;;5048579;28;20029;-85
2021/12/02 00:09:39;;;;;;;7.32;1.88;;;6.00;88.50;;;;;;5045269;28;20047;-85
2021/12/02 00:12:06;;;;;;;9.05;2.28;;;6.00;88.70;;;;;;5045856;28;20044;-82
2021/12/02 00:14:41;;;;;;;13.02;2.20;;;6.00;88.30;;;;;;5050325;28;20063;-84
2021/12/02 00:17:17;;;;;;;11.18;2.10;;;6.00;87.70;;;;;;5045976;28;20079;-84
2021/12/02 00:22:29;;;;;;;12.38;2.72;;;6.00;88.10;;;;;;5045698;28;20504;-84
2021/12/02 00:25:00;;;;;;;10.68;2.00;;;6.00;88.20;;;;;;5042466;28;20148;-84
2021/12/02 00:27:28;;;;;;;15.55;2.50;;;6.10;88.30;;;;;;5041401;28;20112;-84
2021/12/02 00:29:57;;;;;;;14.20;2.67;;;6.00;88.40;;;;;;5050040;28;20029;-85
2021/12/02 00:32:26;;;;;;;13.73;2.60;;;6.00;88.60;;;;;;5038654;28;20047;-84
2021/12/02 00:34:53;;;;;;;8.68;1.80;;;6.00;88.30;;;;;;5045100;28;20425;-83
2021/12/02 00:37:19;;;;;;;11.23;2.20;;;6.10;88.30;;;;;;5048033;28;20037;-84
2021/12/02 00:39:46;;;;;;;9.05;2.30;;;6.00;88.40;;;;;;5045872;28;20036;-84
2021/12/02 00:42:13;;;;;;;11.00;2.40;;;6.00;88.40;;;;;;5054856;28;20032;-85
2021/12/02 00:44:39;;;;;;;9.65;1.73;;;6.00;88.50;;;;;;5051061;28;20045;-84
2021/12/02 00:47:05;;;;;;;11.35;2.38;;;6.00;88.50;;;;;;5046921;28;20048;-84
2021/12/02 00:49:31;;;;;;;12.77;2.75;;;6.00;88.60;;;;;;5047716;28;20083;-84
2021/12/02 00:52:00;;;;;;;13.25;2.78;;;6.00;88.90;;;;;;5048753;28;20140;-85
2021/12/02 00:54:27;;;;;;;10.88;2.03;;;6.00;89.10;;;;;;5050432;28;21192;-85
2021/12/02 00:56:54;;;;;;;13.27;2.50;;;6.00;89.20;;;;;;5050641;28;20033;-84
2021/12/02 00:59:21;;;;;;;15.02;2.17;;;6.00;89.20;;;;;;5048396;28;20447;-84
2021/12/02 01:01:48;;;;;;;15.00;2.65;;;5.90;88.80;;;;;;5058684;28;20108;-83
2021/12/02 01:04:24;;;;;;;10.60;2.72;;;5.80;88.60;;;;;;5045230;28;20045;-83
2021/12/02 01:06:51;;;;;;;12.77;1.92;;;5.80;87.90;;;;;;5060266;28;20060;-84
2021/12/02 01:09:17;;;;;;;10.77;2.28;;;5.80;88.30;;;;;;5048862;28;20043;-83
2021/12/02 01:11:43;;;;;;;11.63;2.28;;;5.80;88.30;;;;;;5058567;28;20041;-83
2021/12/02 01:14:11;;;;;;;8.52;2.17;;;5.80;88.20;;;;;;5048871;28;20048;-83
2021/12/02 01:16:37;;;;;;;13.55;2.45;;;5.80;88.10;;;;;;5049967;28;20734;-84
2021/12/02 01:19:05;;;;;;;17.30;2.58;;;5.70;88.10;;;;;;5058690;28;20037;-85
2021/12/02 01:21:32;;;;;;;6.97;1.80;;;5.70;88.20;;;;;;5063149;28;20037;-84
2021/12/02 01:24:03;;;;;;;12.73;3.15;;;5.70;88.30;;;;;;5059130;28;20475;-85
2021/12/02 01:26:32;;;;;;;11.95;2.72;;;5.70;88.40;;;;;;5049994;28;20033;-84
2021/12/02 01:28:58;;;;;;;10.38;2.13;;;5.70;88.60;;;;;;5049418;28;20080;-84
2021/12/02 01:31:29;;;;;;;15.68;2.28;;;5.60;88.70;;;;;;5048735;28;20041;-85
2021/12/02 01:33:56;;;;;;;15.77;3.20;;;5.70;88.90;;;;;;5046218;28;20496;-85
2021/12/02 01:36:23;;;;;;;15.30;2.65;;;5.60;88.90;;;;;;5038743;28;20075;-84
2021/12/02 01:38:49;;;;;;;15.88;3.20;;;5.60;88.90;;;;;;5050098;28;20056;-84
2021/12/02 01:41:15;;;;;;;19.15;4.47;;;5.60;88.50;;;;;;5045127;28;20060;-85
2021/12/02 01:43:50;;;;;;;20.50;4.13;;;5.60;88.20;;;;;;5045054;28;20068;-85
2021/12/02 01:46:23;;;;;;;16.75;3.47;;;5.70;87.80;;;;;;5044429;28;20033;-85
2021/12/02 01:49:00;;;;;;;11.38;2.58;;;5.70;87.60;;;;;;5045336;28;20041;-85
2021/12/02 01:51:27;;;;;;;15.95;2.90;;;5.70;86.90;;;;;;5042905;28;20052;-86
2021/12/02 01:54:05;;;;;;;14.50;2.45;;;5.80;86.50;;;;;;5046634;28;20041;-85
2021/12/02 01:56:46;;;;;;;10.95;3.13;;;5.70;86.40;;;;;;5047737;28;20033;-84
2021/12/02 01:59:15;;;;;;;14.40;3.42;;;5.70;86.40;;;;;;5045144;28;20029;-85
2021/12/02 02:01:43;;;;;;;17.42;2.80;;;5.70;86.00;;;;;;5050392;28;20045;-85
2021/12/02 02:04:10;;;;;;;13.30;2.47;;;5.70;85.70;;;;;;5043490;28;20396;-85
2021/12/02 02:06:56;;;;;;;18.55;2.90;;;5.70;85.60;;;;;;5048886;28;20079;-85
2021/12/02 02:09:28;;;;;;;13.27;2.47;;;5.70;85.80;;;;;;5045031;28;20095;-85
2021/12/02 02:11:54;;;;;;;14.02;2.70;;;5.70;85.70;;;;;;5041885;28;20033;-84
2021/12/02 02:14:21;;;;;;;13.88;2.40;;;5.60;85.60;;;;;;5029727;28;20124;-85
2021/12/02 02:16:48;;;;;;;16.70;4.15;;;5.60;85.60;;;;;;5047076;28;20041;-85
2021/12/02 02:19:14;;;;;;;16.45;2.55;;;5.50;85.80;;;;;;5048970;28;20033;-85
2021/12/02 02:21:41;;;;;;;13.57;2.90;;;5.50;85.80;;;;;;5059703;28;20033;-85
2021/12/02 02:24:12;;;;;;;11.95;2.22;;;5.40;86.00;;;;;;5069470;28;20032;-84
2021/12/02 02:26:38;;;;;;;12.57;2.53;;;5.40;86.10;;;;;;5067950;28;20480;-85
2021/12/02 02:29:07;;;;;;;12.48;2.38;;;5.40;86.20;;;;;;5052279;28;20040;-84
2021/12/02 02:31:35;;;;;;;11.98;2.10;;;5.50;85.20;;;;;;5048708;28;20043;-85
2021/12/02 02:34:01;;;;;;;10.32;1.70;;;5.50;85.80;;;;;;5048121;28;20076;-83
2021/12/02 02:36:32;;;;;;;3.45;1.33;;;5.40;86.40;;;;;;5047792;28;20451;-83
2021/12/02 02:38:59;;;;;;;4.50;1.17;;;5.00;86.80;;;;;;5047578;28;20393;-82
2021/12/02 02:41:42;;;;;;;2.22;1.00;;;4.70;87.20;;;;;;5048533;28;20033;-83
2021/12/02 02:44:09;;;;;;;3.22;1.00;;;4.60;87.40;;;;;;5048625;28;20075;-86
2021/12/02 02:46:38;;;;;;;3.85;0.90;;;4.50;87.90;;;;;;5043788;28;20033;-84
2021/12/02 02:49:07;;;;;;;2.58;0.90;;;4.40;88.10;;;;;;5046970;28;20033;-85
2021/12/02 02:51:34;;;;;;;3.22;0.90;;;4.40;88.40;;;;;;5046222;28;20476;-85
2021/12/02 02:54:03;;;;;;;3.08;0.85;;;4.40;88.60;;;;;;5049130;28;20039;-84
2021/12/02 02:56:31;;;;;;;3.60;1.10;;;4.40;88.70;;;;;;5043813;28;20473;-84
2021/12/02 03:01:40;;;;;;;3.10;1.00;;;4.40;88.90;;;;;;5044267;28;20481;-84
2021/12/02 03:07:10;;;;;;;3.45;1.25;;;4.50;89.30;;;;;;5053681;28;20044;-84
2021/12/02 03:12:14;;;;;;;5.72;1.50;;;4.50;89.70;;;;;;5045515;28;20021;-85
2021/12/02 03:17:08;;;;;;;7.38;1.90;;;4.60;90.20;;;;;;5047175;28;20115;-86
2021/12/02 03:19:35;;;;;;;12.68;1.88;;;4.60;90.30;;;;;;5062189;28;20044;-83
2021/12/02 03:22:01;;;;;;;8.27;1.58;;;4.60;90.40;;;;;;5065841;28;20025;-83
2021/12/02 03:24:27;;;;;;;10.30;2.00;;;4.70;90.40;;;;;;5063084;28;20571;-84
2021/12/02 03:26:52;;;;;;;9.63;2.03;;;4.70;90.30;;;;;;5052821;28;20388;-84
2021/12/02 03:29:19;;;;;;;14.52;2.88;;;4.70;90.00;;;;;;5053869;28;20037;-84
2021/12/02 03:31:45;;;;;;;11.65;2.15;;;4.80;89.40;;;;;;5051677;28;20128;-83
2021/12/02 03:34:11;;;;;;;13.23;1.98;;;4.90;88.80;;;;;;5042506;28;20104;-85
2021/12/02 03:36:38;;;;;;;9.88;2.13;;;4.90;88.40;;;;;;5050715;28;20087;-84
2021/12/02 03:39:07;;;;;;;13.60;2.83;;;5.00;88.00;;;;;;5052651;28;20029;-85
2021/12/02 03:41:33;;;;;;;13.80;2.83;;;5.00;87.50;;;;;;5037953;28;20038;-84
2021/12/02 03:43:59;;;;;;;11.48;2.60;;;5.10;87.40;;;;;;5044147;28;20045;-84
2021/12/02 03:46:25;;;;;;;10.20;2.03;;;5.10;87.50;;;;;;5050707;28;20041;-84
2021/12/02 03:48:52;;;;;;;9.82;2.08;;;5.10;86.90;;;;;;5048208;28;20084;-85
2021/12/02 03:51:18;;;;;;;10.23;2.30;;;5.10;87.10;;;;;;5044586;28;20057;-83
2021/12/02 03:53:45;;;;;;;10.02;2.80;;;5.00;86.80;;;;;;5046628;28;20075;-85
2021/12/02 03:56:11;;;;;;;9.57;2.28;;;5.00;86.60;;;;;;5052032;28;20292;-85
2021/12/02 03:58:38;;;;;;;13.63;2.55;;;5.00;87.00;;;;;;5052281;28;20094;-85
2021/12/02 04:01:05;;;;;;;10.57;1.90;;;4.90;87.10;;;;;;5050717;28;20033;-84
2021/12/02 04:03:32;;;;;;;9.50;2.63;;;4.90;87.30;;;;;;5045897;28;20136;-83
2021/12/02 04:05:58;;;;;;;9.73;2.83;;;4.90;87.50;;;;;;5033555;28;20037;-82
2021/12/02 04:08:47;;;;;;;14.02;2.20;;;4.90;87.80;;;;;;5049032;28;20036;-85
2021/12/02 04:11:32;;;;;;;12.70;2.42;;;4.80;88.00;;;;;;5041490;28;20467;-86
2021/12/02 04:16:51;;;;;;;14.93;2.33;;;4.80;87.20;;;;;;5044287;28;20159;-85
2021/12/02 04:19:19;;;;;;;12.20;2.00;;;4.80;87.10;;;;;;5033146;28;20037;-86
2021/12/02 04:21:44;;;;;;;14.65;3.30;;;4.80;87.20;;;;;;5046452;28;20070;-85
2021/12/02 04:24:10;;;;;;;7.03;1.95;;;4.80;87.10;;;;;;5049416;28;20060;-84
2021/12/02 04:26:36;;;;;;;10.27;2.17;;;4.80;87.20;;;;;;5052298;28;20163;-83
2021/12/02 04:29:02;;;;;;;7.50;1.70;;;4.70;86.60;;;;;;5049745;28;20036;-85
2021/12/02 04:31:28;;;;;;;1.90;1.20;;;4.60;86.20;;;;;;5048280;28;20393;-84
2021/12/02 04:33:54;;;;;;;6.93;1.65;;;4.50;86.00;;;;;;5048123;28;20037;-85
2021/12/02 04:36:19;;;;;;;6.10;1.85;;;4.40;86.50;;;;;;5042962;28;20036;-85
2021/12/02 04:38:45;;;;;;;4.88;1.45;;;4.30;86.90;;;;;;5046004;28;20034;-84
2021/12/02 04:41:11;;;;;;;7.05;1.42;;;4.30;86.80;;;;;;5041702;28;20036;-85
2021/12/02 04:43:37;;;;;;;6.32;1.40;;;4.20;87.10;;;;;;5046593;28;20025;-86
2021/12/02 04:46:02;;;;;;;7.70;2.08;;;4.20;87.10;;;;;;5049006;28;20404;-85
2021/12/02 04:48:28;;;;;;;8.98;1.88;;;4.10;87.30;;;;;;5047410;28;20369;-85
2021/12/02 04:50:54;;;;;;;7.53;1.42;;;4.20;87.40;;;;;;5034609;28;20107;-86
2021/12/02 04:53:19;;;;;;;8.57;1.90;;;4.20;87.80;;;;;;5045780;28;20035;-85
2021/12/02 04:55:45;;;;;;;8.15;1.73;;;4.20;87.90;;;;;;5045823;28;20032;-85
2021/12/02 04:58:11;;;;;;;8.48;1.85;;;4.10;88.20;;;;;;5037186;28;20034;-85
2021/12/02 05:00:37;;;;;;;7.53;1.40;;;4.10;88.40;;;;;;5047837;28;20037;-85
2021/12/02 05:03:02;;;;;;;8.85;2.03;;;4.20;88.50;;;;;;5047499;28;20040;-84
2021/12/02 05:05:28;;;;;;;9.20;2.03;;;4.20;88.70;;;;;;5050674;28;20122;-85
2021/12/02 05:07:54;;;;;;;7.38;1.92;;;4.20;88.80;;;;;;5051079;28;20028;-85
2021/12/02 05:10:21;;;;;;;12.18;1.80;;;4.20;88.60;;;;;;5047223;28;20556;-85
2021/12/02 05:12:47;;;;;;;10.02;2.22;;;4.30;88.50;;;;;;5040978;28;20068;-85
2021/12/02 05:15:13;;;;;;;8.68;1.98;;;4.40;88.20;;;;;;5044106;28;20157;-84
2021/12/02 05:17:39;;;;;;;9.60;1.95;;;4.50;88.10;;;;;;5049462;28;20482;-83
2021/12/02 05:20:05;;;;;;;10.77;1.75;;;4.30;86.80;;;;;;5036500;28;20033;-83
2021/12/02 05:22:32;;;;;;;9.15;1.90;;;4.10;86.20;;;;;;5048686;28;20069;-84
2021/12/02 05:24:58;;;;;;;6.70;1.65;;;4.10;86.30;;;;;;5032294;28;20067;-84
2021/12/02 05:27:23;;;;;;;10.25;2.22;;;4.10;86.60;;;;;;5044799;28;20452;-85
2021/12/02 05:29:49;;;;;;;11.77;3.28;;;4.10;87.00;;;;;;5047077;28;20040;-84
2021/12/02 05:32:15;;;;;;;11.15;3.55;;;4.10;86.90;;;;;;5043795;28;20216;-83
2021/12/02 05:34:40;;;;;;;13.07;2.83;;;4.20;86.70;;;;;;5042794;28;20092;-84
2021/12/02 05:37:06;;;;;;;18.55;3.83;;;4.30;86.70;;;;;;5042859;28;20381;-83
2021/12/02 05:39:32;;;;;;;13.20;3.78;;;4.40;85.90;;;;;;5046622;28;20033;-83
2021/12/02 05:41:57;;;;;;;16.60;5.15;;;4.60;84.50;;;;;;5037764;28;20043;-84
2021/12/02 05:44:23;;;;;;;8.63;4.05;;;4.70;84.20;;;;;;5030883;28;20043;-83
2021/12/02 05:46:50;;;;;;;11.57;2.97;;;4.60;84.10;;;;;;5044787;28;20451;-84
2021/12/02 05:49:17;;;;;;;7.28;2.03;;;4.70;83.40;;;;;;5039818;28;20163;-84
2021/12/02 05:51:42;;;;;;;9.73;2.40;;;4.60;83.10;;;;;;5045819;28;20554;-84
2021/12/02 05:54:09;;;;;;;8.93;2.30;;;4.60;83.10;;;;;;5039559;28;20053;-84
2021/12/02 05:56:34;;;;;;;11.13;2.15;;;4.60;83.50;;;;;;5043000;28;20041;-84
2021/12/02 05:59:00;;;;;;;8.77;2.10;;;4.60;83.60;;;;;;5039702;28;20121;-83
2021/12/02 06:01:26;;;;;;;9.27;3.65;;;4.60;83.80;;;;;;5035769;28;20042;-85
2021/12/02 06:03:52;;;;;;;12.73;3.42;;;4.60;83.50;;;;;;5045332;28;20038;-84
2021/12/02 06:06:19;;;;;;;10.98;3.70;;;4.60;83.60;;;;;;5039097;28;20128;-83
2021/12/02 06:08:45;;;;;;;10.90;3.05;;;4.60;83.60;;;;;;5039000;28;20117;-84
2021/12/02 06:11:11;;;;;;;15.23;3.15;;;4.60;83.60;;;;;;5034172;28;20053;-85
2021/12/02 06:13:37;;;;;;;10.20;2.47;;;4.60;84.70;;;;;;5043589;28;20047;-85
2021/12/02 06:16:03;;;;;;;7.60;2.10;;;4.50;85.40;;;;;;5038344;28;20025;-85
2021/12/02 06:18:29;;;;;;;11.02;4.20;;;4.40;86.00;;;;;;5038452;28;20870;-86
2021/12/02 06:20:54;;;;;;;9.00;2.95;;;4.40;86.20;;;;;;5048289;28;20033;-84
2021/12/02 06:23:21;;;;;;;7.97;2.67;;;4.40;86.50;;;;;;5040153;28;20040;-84
2021/12/02 06:25:48;;;;;;;9.45;2.40;;;4.40;86.30;;;;;;5039138;28;20063;-83
2021/12/02 06:28:14;;;;;;;9.50;2.47;;;4.40;85.50;;;;;;5044538;28;20022;-83
2021/12/02 06:30:41;;;;;;;10.48;2.42;;;4.40;85.40;;;;;;5048255;28;20061;-85
2021/12/02 06:33:07;;;;;;;11.77;2.42;;;4.40;85.10;;;;;;5047488;28;20041;-84
2021/12/02 06:35:33;;;;;;;9.10;2.60;;;4.40;85.30;;;;;;5049815;28;20029;-86
2021/12/02 06:37:58;;;;;;;9.65;2.60;;;4.50;84.80;;;;;;5042721;28;20037;-85
2021/12/02 06:40:25;;;;;;;20.55;2.78;;;4.50;84.40;;;;;;5047723;28;20060;-85
2021/12/02 06:42:51;;;;;;;12.13;3.63;;;4.60;83.10;;;;;;5057802;28;20079;-85
2021/12/02 06:45:16;;;;;;;12.55;3.33;;;4.60;83.60;;;;;;5042307;28;20033;-85
2021/12/02 06:47:43;;;;;;;13.88;2.33;;;4.60;83.20;;;;;;5059322;28;20041;-86
2021/12/02 06:50:13;;;;;;;9.20;2.00;;;4.60;82.50;;;;;;5049013;28;20477;-85
2021/12/02 06:52:39;;;;;;;8.65;2.10;;;4.60;82.30;;;;;;5042616;28;20054;-85
2021/12/02 06:55:06;;;;;;;9.00;2.10;;;4.60;82.00;;;;;;5039476;28;20528;-84
2021/12/02 06:57:32;;;;;;;12.38;2.58;;;4.60;82.20;;;;;;5043295;28;20380;-86
2021/12/02 07:00:03;;;;;;;10.10;2.17;;;4.60;81.80;;;;;;5051630;28;20483;-86
2021/12/02 07:02:30;;;;;;;8.35;2.50;;;4.60;81.60;;;;;;5042005;28;20068;-85
2021/12/02 07:04:57;;;;;;;10.55;3.13;;;4.60;81.90;;;;;;5063091;28;20043;-83
2021/12/02 07:07:23;;;;;;;9.07;3.08;;;4.50;82.40;;;;;;5058842;28;20084;-84
2021/12/02 07:09:49;;;;;;;11.00;3.10;;;4.40;82.60;;;;;;5052538;28;20074;-85
2021/12/02 07:12:18;;;;;;;9.65;2.33;;;4.40;82.60;;;;;;5049982;28;20033;-84
2021/12/02 07:14:47;;;;;;;5.20;1.40;;;4.50;82.50;;;;;;5036567;28;20082;-84
2021/12/02 07:17:12;;;;;;;5.72;2.15;;;4.00;84.00;;;;;;5045178;28;20048;-85
2021/12/02 07:19:40;;;;;;;3.72;1.60;;;3.60;85.50;;;;;;5044376;28;20116;-85
2021/12/02 07:22:06;;;;;;;5.75;1.95;;;3.50;86.20;;;;;;5039147;28;20033;-84
2021/12/02 07:24:31;;;;;;;3.58;1.67;;;3.40;86.40;;;;;;5042054;28;20041;-82
2021/12/02 07:26:57;;;;;;;4.80;1.90;;;3.40;86.40;;;;;;5047078;28;20039;-84
2021/12/02 07:29:23;;;;;;;6.10;1.60;;;3.30;87.30;;;;;;5049612;28;20033;-84
2021/12/02 07:31:52;;;;;;;5.32;2.38;;;3.20;87.60;;;;;;5040842;28;20037;-84
2021/12/02 07:34:21;;;;;;;2.40;1.35;;;3.20;88.00;;;;;;5046774;28;20030;-83
2021/12/02 07:36:48;;;;;;;5.45;1.60;;;3.20;88.00;;;;;;5050600;28;20041;-82
2021/12/02 07:39:14;;;;;;;6.63;1.75;;;3.10;88.20;;;;;;5048951;28;20043;-84
2021/12/02 07:41:42;;;;;;;2.90;1.33;;;3.10;88.20;;;;;;5048091;28;20468;-84
2021/12/02 07:44:10;;;;;;;6.53;1.48;;;3.10;88.40;;;;;;5048721;28;20098;-83
2021/12/02 07:46:36;;;;;;;5.20;2.13;;;3.20;88.50;;;;;;5043814;28;20041;-82
2021/12/02 07:49:02;;;;;;;6.03;2.08;;;3.20;88.50;;;;;;5052749;28;20036;-82
2021/12/02 07:51:32;;;;;;;9.25;2.50;;;3.30;88.70;;;;;;5054196;28;20045;-82
2021/12/02 07:53:58;;;;;;;6.63;2.80;;;3.20;88.80;;;;;;5055390;28;20434;-83
2021/12/02 07:56:25;;;;;;;11.80;2.70;;;3.30;88.70;;;;;;5042647;28;20033;-82
2021/12/02 07:58:50;;;;;;;6.50;2.20;;;3.30;88.80;;;;;;5036426;28;20036;-84
2021/12/02 08:01:17;;;;;;;9.93;2.47;;;3.40;88.80;;;;;;5042856;28;20041;-82
2021/12/02 08:03:47;;;;;;;9.73;2.10;;;3.40;88.70;;;;;;5041189;28;20033;-83
2021/12/02 08:06:14;;;;;;;9.73;2.40;;;3.40;88.90;;;;;;5053104;28;20154;-84
2021/12/02 08:08:41;;;;;;;10.38;3.10;;;3.50;88.90;;;;;;5068151;28;20056;-84
2021/12/02 08:11:07;;;;;;;11.05;3.33;;;3.50;88.90;;;;;;5055425;28;20131;-84
2021/12/02 08:13:33;;;;;;;10.77;2.67;;;3.50;88.90;;;;;;5036018;28;20121;-83
2021/12/02 08:16:02;;;;;;;8.55;2.83;;;3.60;88.90;;;;;;5038586;28;20136;-84
2021/12/02 08:18:28;;;;;;;9.23;2.85;;;3.60;88.90;;;;;;5041220;28;20124;-84
2021/12/02 08:20:54;;;;;;;9.88;3.10;;;3.60;88.70;;;;;;5044900;28;20045;-83
2021/12/02 08:23:20;;;;;;;11.10;3.88;;;3.70;88.20;;;;;;5046487;28;20560;-84
2021/12/02 08:25:46;;;;;;;10.90;3.58;;;3.80;87.40;;;;;;5044948;28;20037;-85
2021/12/02 08:28:12;;;;;;;13.85;4.05;;;3.90;86.60;;;;;;5044634;28;20480;-84
2021/12/02 08:30:38;;;;;;;11.57;3.65;;;4.00;84.80;;;;;;5059769;28;20025;-84
2021/12/02 08:33:06;;;;;;;11.63;4.18;;;4.10;83.50;;;;;;5064546;28;20017;-85
2021/12/02 08:35:34;;;;;;;13.00;3.15;;;4.20;82.50;;;;;;5061389;28;20040;-83
2021/12/02 08:38:03;;;;;;;12.27;3.50;;;4.30;82.30;;;;;;5064853;28;20097;-84
2021/12/02 08:40:30;;;;;;;11.60;3.35;;;4.30;81.70;;;;;;5054374;28;20505;-83
2021/12/02 08:42:58;;;;;;;11.85;3.28;;;4.40;81.80;;;;;;5036342;28;20083;-84
2021/12/02 08:45:23;;;;;;;13.82;4.43;;;4.40;81.00;;;;;;5033128;28;20037;-84
2021/12/02 08:47:49;;;;;;;12.25;3.75;;;4.50;81.20;;;;;;5039177;28;20495;-84
2021/12/02 08:50:18;;;;;;;10.63;3.25;;;4.50;80.80;;;;;;5039915;28;20120;-84
2021/12/02 08:52:45;;;;;;;10.40;2.65;;;4.50;80.20;;;;;;5040293;28;20029;-84
2021/12/02 08:55:11;;;;;;;10.20;3.10;;;4.60;80.40;;;;;;5038170;28;20490;-83
2021/12/02 08:57:37;;;;;;;9.85;2.90;;;4.60;79.50;;;;;;5040050;28;20029;-83
2021/12/02 09:00:06;;;;;;;8.82;2.53;;;4.70;78.70;;;;;;5033241;28;20052;-83
2021/12/02 09:02:32;;;;;;;8.65;2.60;;;4.70;78.50;;;;;;5030376;28;20286;-84
2021/12/02 09:04:58;;;;;;;8.50;2.17;;;4.70;78.40;;;;;;5034397;28;20044;-84
2021/12/02 09:07:24;;;;;;;12.77;3.33;;;4.70;78.60;;;;;;5029991;28;20040;-84
2021/12/02 09:09:50;;;;;;;12.02;3.00;;;4.80;78.00;;;;;;5031309;28;20021;-84
2021/12/02 09:12:16;;;;;;;9.65;2.53;;;4.90;77.90;;;;;;5032214;28;20036;-85
2021/12/02 09:14:42;;;;;;;11.48;3.67;;;4.90;77.30;;;;;;5031953;28;20033;-83
2021/12/02 09:17:07;;;;;;;13.45;3.60;;;4.90;78.00;;;;;;5024754;28;20447;-83
2021/12/02 09:19:33;;;;;;;13.50;4.03;;;5.00;78.30;;;;;;5031563;28;20141;-82
2021/12/02 09:22:00;;;;;;;12.13;2.28;;;5.00;77.50;;;;;;5027732;28;20657;-83
2021/12/02 09:24:26;;;;;;;9.00;2.65;;;4.90;78.50;;;;;;5028638;28;20033;-84
2021/12/02 09:26:53;;;;;;;11.13;2.45;;;5.00;78.70;;;;;;5032268;28;20044;-83
2021/12/02 09:29:20;;;;;;;9.02;2.60;;;4.90;78.50;;;;;;5031912;28;20079;-84
2021/12/02 09:31:47;;;;;;;15.35;3.25;;;4.90;78.50;;;;;;5040974;28;20473;-83
2021/12/02 09:34:14;;;;;;;16.80;4.13;;;4.90;78.60;;;;;;5025156;28;20037;-84
2021/12/02 09:36:40;;;;;;;15.00;4.10;;;4.90;78.70;;;;;;5035673;28;20029;-83
2021/12/02 09:39:07;;;;;;;13.60;4.60;;;5.00;79.00;;;;;;5036083;28;20458;-83
2021/12/02 09:41:34;;;;;;;11.95;3.45;;;5.00;79.20;;;;;;5032269;28;20396;-83
2021/12/02 09:44:00;;;;;;;18.15;3.92;;;5.00;78.70;;;;;;5038745;28;20572;-83
2021/12/02 09:46:25;;;;;;;10.88;3.30;;;5.00;79.00;;;;;;5036786;28;20120;-84
2021/12/02 09:48:53;;;;;;;10.38;2.60;;;5.10;78.80;;;;;;5034701;28;20032;-84
2021/12/02 09:51:21;;;;;;;10.18;3.25;;;5.10;78.80;;;;;;5035157;28;20049;-84
2021/12/02 09:53:53;;;;;;;16.05;4.90;;;5.10;78.80;;;;;;5034945;28;20665;-85
2021/12/02 09:56:26;;;;;;;12.70;3.28;;;5.10;79.30;;;;;;5038632;28;20032;-84
2021/12/02 09:58:55;;;;;;;14.15;3.05;;;5.10;79.10;;;;;;5034240;28;20476;-84
2021/12/02 10:01:25;;;;;;;17.33;6.40;;;5.10;78.60;;;;;;5035685;28;20041;-83
2021/12/02 10:03:59;;;;;;;22.83;6.97;;;5.10;79.40;;;;;;5036599;28;20069;-81
2021/12/02 10:06:30;;;;;;;12.93;3.60;;;5.20;79.10;;;;;;5025341;28;20188;-81
2021/12/02 10:09:08;;;;;;;11.98;3.95;;;5.20;78.70;;;;;;5033258;28;20033;-80
2021/12/02 10:11:39;;;;;;;10.15;3.28;;;5.20;78.60;;;;;;5034580;28;20056;-79
2021/12/02 10:14:28;;;;;;;11.63;3.10;;;5.20;79.50;;;;;;5033846;28;20220;-80
2021/12/02 10:17:12;;;;;;;10.63;2.58;;;5.10;80.20;;;;;;5022477;28;20550;-80
2021/12/02 10:19:58;;;;;;;15.65;5.28;;;5.10;80.40;;;;;;5034036;28;20566;-81
2021/12/02 10:22:24;;;;;;;18.42;5.20;;;5.10;81.50;;;;;;5030372;28;20126;-81
2021/12/02 10:24:50;;;;;;;11.27;3.55;;;5.10;81.50;;;;;;5032564;28;20553;-80
2021/12/02 10:27:16;;;;;;;10.48;3.08;;;5.10;81.10;;;;;;5032304;28;20299;-80
2021/12/02 10:29:46;;;;;;;17.30;3.72;;;5.10;80.70;;;;;;5043499;28;20037;-81
2021/12/02 10:32:21;;;;;;;11.93;3.75;;;5.10;80.90;;;;;;5040667;28;20037;-81
2021/12/02 10:34:55;;;;;;;12.70;4.25;;;5.20;81.40;;;;;;5039883;28;20042;-81
2021/12/02 10:37:23;;;;;;;5.82;1.90;;;5.20;81.80;;;;;;5015026;28;20657;-80
2021/12/02 10:40:07;;;;;;;8.00;3.30;;;5.20;82.30;;;;;;5018952;28;20033;-80
2021/12/02 10:42:37;;;;;;;8.25;3.35;;;4.90;84.60;;;;;;5020490;28;20045;-81
2021/12/02 10:45:06;;;;;;;8.10;3.60;;;4.70;85.10;;;;;;5021949;28;20159;-80
2021/12/02 10:47:32;;;;;;;8.70;3.15;;;4.60;86.10;;;;;;5028804;28;20033;-80
2021/12/02 10:50:17;;;;;;;8.30;2.55;;;4.60;86.50;;;;;;5023100;28;20071;-80
2021/12/02 10:52:43;;;;;;;8.00;2.28;;;4.50;87.10;;;;;;5025420;28;20049;-81
2021/12/02 10:55:14;;;;;;;6.88;2.88;;;4.50;87.20;;;;;;5022193;28;20105;-81
2021/12/02 10:57:54;;;;;;;8.70;3.50;;;4.40;87.50;;;;;;5026643;28;20072;-81
2021/12/02 11:00:24;;;;;;;13.57;4.45;;;4.50;88.00;;;;;;5034586;28;20500;-80
2021/12/02 11:02:53;;;;;;;11.55;4.90;;;4.60;88.10;;;;;;5032006;28;20049;-81
2021/12/02 11:05:32;;;;;;;10.85;4.80;;;4.70;88.10;;;;;;5030778;28;20450;-81
2021/12/02 11:08:11;;;;;;;12.02;3.58;;;4.80;88.10;;;;;;5028111;28;20372;-80
2021/12/02 11:10:40;;;;;;;11.68;3.92;;;5.00;87.70;;;;;;5026215;28;20859;-81
2021/12/02 11:13:07;;;;;;;13.80;4.32;;;5.10;87.10;;;;;;5027278;28;20751;-81
2021/12/02 11:15:36;;;;;;;13.98;3.10;;;5.30;86.60;;;;;;5031176;28;20045;-81
2021/12/02 11:18:10;;;;;;;6.60;2.67;;;5.20;86.50;;;;;;5031518;28;20048;-78
2021/12/02 11:20:42;;;;;;;12.93;3.70;;;5.20;86.80;;;;;;5031686;28;20384;-80
2021/12/02 11:23:29;;;;;;;12.40;3.22;;;4.90;86.90;;;;;;5029729;28;20044;-80
2021/12/02 11:26:01;;;;;;;15.75;5.80;;;4.70;87.20;;;;;;5027873;28;20033;-80
2021/12/02 11:28:29;;;;;;;21.40;11.52;;;4.60;87.90;;;;;;5030267;28;20364;-79
2021/12/02 11:30:56;;;;;;;19.50;7.50;;;4.60;88.30;;;;;;5033281;28;20083;-80
2021/12/02 11:33:30;;;;;;;13.05;3.58;;;4.40;88.40;;;;;;5025806;28;20071;-81
2021/12/02 11:35:56;;;;;;;8.10;2.10;;;4.50;88.50;;;;;;5033921;28;20478;-78
2021/12/02 11:38:26;;;;;;;7.57;2.78;;;4.10;87.30;;;;;;5033171;28;20234;-80
2021/12/02 11:41:00;;;;;;;6.20;1.98;;;4.00;88.00;;;;;;5031391;28;20116;-80
2021/12/02 11:43:28;;;;;;;10.63;3.30;;;3.90;88.40;;;;;;5031931;28;20037;-80
2021/12/02 11:45:55;;;;;;;8.63;2.72;;;3.90;88.90;;;;;;5034165;28;20041;-78
2021/12/02 11:48:27;;;;;;;8.77;2.55;;;4.00;89.00;;;;;;5024443;28;20132;-78
2021/12/02 11:50:56;;;;;;;7.90;2.45;;;4.00;89.00;;;;;;5033006;28;20040;-81
2021/12/02 11:53:22;;;;;;;7.85;1.98;;;4.00;89.20;;;;;;5031725;28;20033;-80
2021/12/02 11:55:51;;;;;;;9.02;2.25;;;4.00;89.50;;;;;;5033903;28;20144;-79
2021/12/02 11:58:17;;;;;;;7.88;2.00;;;4.00;89.70;;;;;;5035731;28;20079;-78
2021/12/02 12:00:45;;;;;;;6.43;2.97;;;4.00;89.90;;;;;;5042282;28;20044;-79
2021/12/02 12:03:36;;;;;;;7.78;2.40;;;4.00;90.10;;;;;;5033299;28;20037;-79
2021/12/02 12:06:13;;;;;;;9.73;3.72;;;4.00;90.10;;;;;;5034794;28;20427;-79
2021/12/02 12:08:46;;;;;;;6.53;2.67;;;4.10;90.20;;;;;;5030715;28;20065;-80
2021/12/02 12:11:22;;;;;;;6.22;2.70;;;4.10;90.10;;;;;;5036780;28;20041;-79
2021/12/02 12:14:03;;;;;;;9.23;3.08;;;4.20;90.20;;;;;;5033027;28;20444;-80
2021/12/02 12:16:34;;;;;;;10.02;4.25;;;4.20;90.20;;;;;;5037765;28;20072;-80
2021/12/02 12:19:20;;;;;;;9.07;3.20;;;4.30;89.90;;;;;;5033254;28;21060;-81
2021/12/02 12:21:56;;;;;;;9.05;4.20;;;4.30;89.80;;;;;;5034435;28;20125;-80
2021/12/02 12:24:45;;;;;;;11.23;3.97;;;4.30;89.70;;;;;;5038137;28;20044;-79
2021/12/02 12:27:16;;;;;;;12.40;4.05;;;4.30;89.60;;;;;;5035137;28;20055;-80
2021/12/02 12:29:43;;;;;;;9.43;3.38;;;4.30;89.80;;;;;;5040664;28;20045;-78
2021/12/02 12:32:39;;;;;;;7.68;2.40;;;4.50;89.90;;;;;;5040531;28;20638;-81
2021/12/02 12:35:14;;;;;;;11.55;8.32;;;4.60;89.60;;;;;;5035922;28;20041;-81
2021/12/02 12:40:11;;;;;;;6.55;1.70;;;4.50;89.30;;;;;;5027061;28;20068;-79
2021/12/02 12:42:40;;;;;;;7.07;2.20;;;4.30;89.30;;;;;;5030263;28;20029;-78
2021/12/02 12:45:09;;;;;;;6.97;2.10;;;4.30;89.60;;;;;;5032035;28;20057;-80
2021/12/02 12:47:43;;;;;;;5.35;1.92;;;4.20;89.60;;;;;;5030756;28;20029;-80
2021/12/02 12:50:41;;;;;;;8.15;2.40;;;4.20;89.60;;;;;;5030445;28;20045;-79
2021/12/02 12:53:07;;;;;;;8.05;2.78;;;4.30;89.70;;;;;;5035319;28;20048;-80
2021/12/02 12:55:39;;;;;;;12.90;5.32;;;4.40;89.40;;;;;;5038738;28;20059;-78
2021/12/02 12:58:12;;;;;;;10.82;4.53;;;4.50;89.20;;;;;;5027209;28;20044;-79
2021/12/02 13:00:41;;;;;;;5.97;2.67;;;4.60;89.10;;;;;;5036010;28;20037;-81
2021/12/02 13:03:11;;;;;;;6.93;2.58;;;4.70;88.90;;;;;;5030463;28;20029;-79
2021/12/02 13:05:44;;;;;;;6.95;2.55;;;4.70;88.50;;;;;;5027842;28;20127;-81
2021/12/02 13:08:19;;;;;;;8.32;2.60;;;4.90;88.70;;;;;;5036445;28;20394;-80
2021/12/02 13:10:55;;;;;;;7.00;2.25;;;5.00;88.50;;;;;;5036674;28;20663;-81
2021/12/02 13:13:33;;;;;;;6.82;2.58;;;4.90;88.30;;;;;;5032551;28;20056;-79
2021/12/02 13:16:11;;;;;;;8.20;2.63;;;4.90;88.30;;;;;;5040693;28;20029;-78
2021/12/02 13:18:40;;;;;;;9.38;3.15;;;4.90;88.60;;;;;;5034901;28;20440;-80